createdAt,value
2022-11-29T00:03:34.872Z,38.60
2022-11-29T00:06:24.542Z,37.50
2022-11-29T00:09:12.999Z,37.60
2022-11-29T00:12:12.345Z,42.17
2022-11-29T00:14:59.314Z,42.33
2022-11-29T00:17:46.397Z,48.10
2022-11-29T00:20:34.359Z,40.05
2022-11-29T00:23:21.397Z,39.55
2022-11-29T00:26:08.780Z,41.45
2022-11-29T00:28:55.918Z,36.60
2022-11-29T00:31:43.903Z,35.70
2022-11-29T00:34:30.959Z,38.85
2022-11-29T00:37:17.986Z,38.25
2022-11-29T00:40:07.632Z,39.97
2022-11-29T00:42:54.670Z,36.25
2022-11-29T00:45:41.767Z,38.63
2022-11-29T00:48:29.052Z,41.53
2022-11-29T00:51:16.081Z,40.50
2022-11-29T00:54:03.101Z,36.72
2022-11-29T00:56:50.089Z,44.13
2022-11-29T00:59:37.054Z,41.70
2022-11-29T01:02:24.149Z,40.70
2022-11-29T01:05:11.168Z,36.72
2022-11-29T01:07:58.286Z,43.20
2022-11-29T01:10:45.380Z,39.78
2022-11-29T01:13:32.760Z,40.50
2022-11-29T01:16:19.879Z,41.78
2022-11-29T01:19:07.472Z,38.85
2022-11-29T01:21:54.480Z,42.70
2022-11-29T01:24:41.652Z,42.47
2022-11-29T01:27:29.351Z,43.88
2022-11-29T01:30:16.444Z,41.10
2022-11-29T01:33:03.570Z,46.00
2022-11-29T01:35:52.262Z,43.40
2022-11-29T01:38:39.583Z,45.22
2022-11-29T01:41:29.380Z,45.05
2022-11-29T01:44:16.332Z,45.03
2022-11-29T01:47:03.498Z,39.03
2022-11-29T01:49:50.841Z,42.33
2022-11-29T01:52:38.491Z,41.50
2022-11-29T01:55:25.978Z,46.20
2022-11-29T01:58:15.239Z,46.25
2022-11-29T02:01:02.479Z,47.17
2022-11-29T02:03:49.810Z,41.63
2022-11-29T02:06:37.544Z,40.08
2022-11-29T02:09:24.658Z,43.28
2022-11-29T02:12:43.455Z,42.10
2022-11-29T02:15:55.060Z,43.85
2022-11-29T02:18:57.859Z,43.88
2022-11-29T02:22:09.162Z,41.40
2022-11-29T02:25:17.811Z,41.38
2022-11-29T02:28:37.088Z,42.53
2022-11-29T02:31:56.438Z,47.67
2022-11-29T02:34:58.395Z,46.85
2022-11-29T02:38:00.578Z,48.13
2022-11-29T02:41:03.718Z,47.63
2022-11-29T02:44:09.384Z,47.78
2022-11-29T02:47:25.971Z,50.85
2022-11-29T02:50:39.109Z,46.22
2022-11-29T02:53:50.835Z,46.67
2022-11-29T02:56:57.154Z,48.40
2022-11-29T02:59:57.313Z,42.30
2022-11-29T03:05:54.880Z,48.58
2022-11-29T03:09:08.071Z,48.15
2022-11-29T03:12:25.918Z,53.28
2022-11-29T03:15:13.004Z,42.47
2022-11-29T03:18:02.892Z,46.65
2022-11-29T03:20:53.000Z,48.75
2022-11-29T03:23:51.149Z,52.30
2022-11-29T03:27:01.673Z,53.58
2022-11-29T03:29:56.734Z,48.22
2022-11-29T03:32:59.046Z,47.50
2022-11-29T03:36:04.770Z,53.28
2022-11-29T03:38:56.908Z,49.78
2022-11-29T03:41:52.350Z,50.90
2022-11-29T03:44:53.857Z,50.05
2022-11-29T03:47:54.969Z,50.20
2022-11-29T03:50:48.572Z,52.97
2022-11-29T03:53:57.471Z,48.08
2022-11-29T03:56:44.896Z,47.95
2022-11-29T03:59:47.472Z,51.78
2022-11-29T04:02:52.857Z,46.30
2022-11-29T04:06:01.611Z,49.10
2022-11-29T04:09:21.681Z,49.10
2022-11-29T04:12:20.608Z,49.28
2022-11-29T04:15:32.018Z,47.70
2022-11-29T04:18:52.649Z,48.45
2022-11-29T04:22:24.585Z,47.00
2022-11-29T04:25:43.730Z,52.03
2022-11-29T04:28:55.534Z,52.05
2022-11-29T04:32:11.749Z,46.10
2022-11-29T04:35:23.219Z,43.75
2022-11-29T04:38:35.044Z,54.65
2022-11-29T04:41:37.363Z,49.58
2022-11-29T04:45:09.281Z,55.15
2022-11-29T04:48:11.553Z,49.70
2022-11-29T04:51:17.214Z,51.83
2022-11-29T04:54:19.622Z,47.25
2022-11-29T04:57:22.867Z,48.83
2022-11-29T05:00:14.125Z,47.67
2022-11-29T05:03:23.689Z,54.22
2022-11-29T05:06:16.368Z,52.47
2022-11-29T05:09:09.428Z,50.33
2022-11-29T05:12:15.059Z,51.72
2022-11-29T05:15:13.969Z,53.53
2022-11-29T05:18:26.796Z,51.70
2022-11-29T05:21:25.939Z,50.38
2022-11-29T05:24:21.791Z,52.03
2022-11-29T05:27:41.860Z,48.38
2022-11-29T05:30:59.133Z,46.92
2022-11-29T05:34:13.398Z,51.42
2022-11-29T05:37:12.625Z,50.15
2022-11-29T05:40:33.507Z,48.27
2022-11-29T05:43:48.677Z,49.58
2022-11-29T05:46:35.793Z,50.72
2022-11-29T05:49:55.306Z,56.97
2022-11-29T05:53:12.235Z,48.72
2022-11-29T05:56:16.888Z,51.15
2022-11-29T05:59:18.014Z,47.80
2022-11-29T06:02:11.728Z,49.55
2022-11-29T06:05:24.836Z,48.72
2022-11-29T06:08:52.319Z,41.67
2022-11-29T06:11:45.533Z,45.55
2022-11-29T06:14:57.278Z,52.33
2022-11-29T06:21:52.928Z,54.28
2022-11-29T06:25:17.958Z,51.50
2022-11-29T06:28:14.140Z,50.47
2022-11-29T06:31:29.036Z,48.80
2022-11-29T06:34:29.130Z,49.95
2022-11-29T06:37:28.928Z,52.30
2022-11-29T06:40:16.923Z,47.53
2022-11-29T06:43:04.206Z,45.05
2022-11-29T06:46:11.398Z,43.08
2022-11-29T06:49:19.578Z,49.45
2022-11-29T06:52:21.448Z,43.78
2022-11-29T06:55:20.513Z,49.47
2022-11-29T06:58:20.730Z,44.88
2022-11-29T07:04:07.198Z,41.35
2022-11-29T07:06:54.513Z,43.78
2022-11-29T07:09:43.365Z,46.83
2022-11-29T07:12:30.747Z,43.13
2022-11-29T07:15:22.040Z,41.28
2022-11-29T07:18:12.778Z,45.03
2022-11-29T07:21:09.425Z,46.50
2022-11-29T07:24:15.048Z,46.42
2022-11-29T07:27:21.399Z,42.85
2022-11-29T07:30:21.561Z,42.20
2022-11-29T07:33:08.568Z,43.95
2022-11-29T07:36:00.278Z,43.00
2022-11-29T07:39:12.785Z,40.50
2022-11-29T07:42:16.170Z,41.53
2022-11-29T07:45:20.131Z,45.83
2022-11-29T07:48:07.176Z,40.80
2022-11-29T07:50:55.752Z,45.05
2022-11-29T07:53:44.761Z,44.22
2022-11-29T07:56:31.789Z,42.15
2022-11-29T07:59:19.002Z,42.58
2022-11-29T08:02:11.522Z,40.33
2022-11-29T08:04:59.408Z,42.97
2022-11-29T08:07:47.914Z,40.00
2022-11-29T08:10:35.721Z,45.17
2022-11-29T08:13:22.750Z,41.10
2022-11-29T08:16:15.330Z,42.75
2022-11-29T08:19:02.522Z,41.75
2022-11-29T08:21:51.266Z,41.95
2022-11-29T08:24:38.408Z,38.60
2022-11-29T08:27:25.729Z,46.45
2022-11-29T08:30:13.207Z,44.22
2022-11-29T08:33:00.247Z,37.88
2022-11-29T08:35:47.334Z,39.65
2022-11-29T08:38:34.456Z,37.33
2022-11-29T08:41:21.529Z,41.35
2022-11-29T08:44:09.318Z,38.33
2022-11-29T08:47:15.010Z,37.50
2022-11-29T08:50:06.508Z,39.47
2022-11-29T08:53:12.490Z,37.95
2022-11-29T08:56:00.504Z,41.05
2022-11-29T08:58:47.626Z,36.78
2022-11-29T09:01:34.752Z,34.78
2022-11-29T09:04:22.138Z,36.83
2022-11-29T09:07:09.199Z,40.47
2022-11-29T09:09:56.436Z,37.13
2022-11-29T09:12:44.594Z,41.47
2022-11-29T09:15:31.745Z,36.38
2022-11-29T09:18:18.858Z,39.00
2022-11-29T09:21:08.255Z,39.92
2022-11-29T09:23:59.389Z,38.25
2022-11-29T09:26:48.648Z,36.75
2022-11-29T09:29:38.292Z,37.53
2022-11-29T09:32:25.439Z,42.83
2022-11-29T09:35:12.858Z,38.70
2022-11-29T09:38:00.554Z,37.22
2022-11-29T09:40:55.707Z,36.42
2022-11-29T09:43:45.883Z,35.50
2022-11-29T09:50:02.078Z,38.28
2022-11-29T09:53:17.852Z,43.10
2022-11-29T09:56:12.524Z,34.13
2022-11-29T09:59:05.450Z,39.03
2022-11-29T10:02:03.610Z,40.05
2022-11-29T10:04:56.827Z,36.05
2022-11-29T10:07:48.957Z,37.25
2022-11-29T10:10:47.864Z,34.22
2022-11-29T10:13:36.179Z,35.53
2022-11-29T10:16:27.683Z,36.95
2022-11-29T10:19:29.725Z,38.22
2022-11-29T10:22:31.883Z,34.85
2022-11-29T10:25:42.562Z,36.53
2022-11-29T10:28:34.729Z,33.60
2022-11-29T10:31:27.850Z,37.00
2022-11-29T10:34:20.992Z,35.92
2022-11-29T10:37:13.651Z,32.47
2022-11-29T10:40:09.784Z,35.58
2022-11-29T10:42:58.729Z,37.95
2022-11-29T10:45:53.687Z,35.60
2022-11-29T10:48:41.071Z,41.67
2022-11-29T10:51:29.326Z,38.67
2022-11-29T10:54:22.111Z,34.85
2022-11-29T10:57:14.719Z,38.30
2022-11-29T11:00:09.905Z,39.13
2022-11-29T11:03:36.314Z,35.28
2022-11-29T11:06:43.319Z,40.05
2022-11-29T11:09:33.719Z,39.75
2022-11-29T11:12:24.489Z,33.95
2022-11-29T11:15:36.440Z,37.20
2022-11-29T11:18:28.744Z,34.65
2022-11-29T11:21:18.798Z,41.75
2022-11-29T11:24:06.095Z,36.38
2022-11-29T11:26:53.235Z,37.10
2022-11-29T11:29:44.313Z,37.75
2022-11-29T11:32:32.556Z,36.50
2022-11-29T11:35:24.400Z,33.88
2022-11-29T11:38:17.973Z,36.47
2022-11-29T11:41:19.269Z,36.33
2022-11-29T11:44:46.501Z,38.47
2022-11-29T11:47:37.048Z,38.65
2022-11-29T11:50:30.711Z,34.72
2022-11-29T11:53:18.368Z,33.50
2022-11-29T11:56:13.106Z,38.95
2022-11-29T11:59:00.442Z,32.65
2022-11-29T12:01:49.664Z,33.08
2022-11-29T12:04:37.726Z,40.67
2022-11-29T12:08:06.243Z,35.03
2022-11-29T12:10:42.879Z,33.03
2022-11-29T12:13:33.115Z,36.17
2022-11-29T12:19:24.090Z,33.28
2022-11-29T12:22:20.224Z,34.35
2022-11-29T12:25:15.268Z,34.30
2022-11-29T12:28:02.451Z,32.67
2022-11-29T12:31:15.398Z,34.20
2022-11-29T12:34:44.089Z,31.33
2022-11-29T12:38:12.282Z,32.45
2022-11-29T12:41:26.676Z,33.45
2022-11-29T12:44:32.636Z,32.15
2022-11-29T12:47:51.716Z,36.13
2022-11-29T12:50:59.752Z,33.83
2022-11-29T12:54:01.727Z,32.70
2022-11-29T12:57:02.323Z,32.45
2022-11-29T13:00:01.690Z,34.30
2022-11-29T13:03:07.144Z,27.88
2022-11-29T13:06:21.567Z,32.90
2022-11-29T13:09:37.360Z,36.88
2022-11-29T13:12:35.135Z,30.70
2022-11-29T13:15:30.212Z,32.47
2022-11-29T13:18:31.879Z,32.95
2022-11-29T13:21:57.539Z,32.72
2022-11-29T13:25:14.392Z,33.10
2022-11-29T13:28:10.390Z,35.05
2022-11-29T13:31:02.848Z,30.70
2022-11-29T13:33:49.897Z,34.92
2022-11-29T13:36:44.487Z,32.70
2022-11-29T13:39:36.681Z,36.53
2022-11-29T13:42:51.013Z,29.23
2022-11-29T13:45:50.890Z,29.85
2022-11-29T13:48:44.173Z,36.03
2022-11-29T13:51:34.131Z,36.15
2022-11-29T13:54:32.790Z,32.58
2022-11-29T13:57:19.835Z,32.17
2022-11-29T14:00:07.693Z,33.97
2022-11-29T14:02:56.795Z,35.15
2022-11-29T14:05:45.501Z,30.20
2022-11-29T14:12:29.071Z,36.03
2022-11-29T14:15:31.318Z,33.22
2022-11-29T14:18:36.889Z,32.83
2022-11-29T14:21:23.893Z,33.30
2022-11-29T14:24:37.089Z,36.28
2022-11-29T14:27:24.111Z,34.88
2022-11-29T14:30:48.111Z,33.80
2022-11-29T14:33:47.177Z,31.95
2022-11-29T14:37:04.838Z,35.78
2022-11-29T14:39:55.175Z,32.95
2022-11-29T14:42:48.186Z,33.83
2022-11-29T14:45:35.557Z,29.95
2022-11-29T14:48:31.992Z,31.90
2022-11-29T14:51:20.097Z,31.38
2022-11-29T14:54:18.494Z,34.78
2022-11-29T15:00:01.885Z,33.20
2022-11-29T15:03:08.030Z,38.50
2022-11-29T15:06:11.579Z,32.30
2022-11-29T15:09:06.194Z,33.28
2022-11-29T15:11:59.281Z,35.22
2022-11-29T15:14:54.402Z,30.77
2022-11-29T15:18:32.313Z,34.92
2022-11-29T15:21:50.862Z,30.92
2022-11-29T15:24:57.130Z,30.80
2022-11-29T15:27:55.196Z,31.13
2022-11-29T15:30:42.983Z,29.17
2022-11-29T15:33:30.356Z,27.92
2022-11-29T15:36:20.068Z,30.80
2022-11-29T15:39:25.275Z,30.17
2022-11-29T15:42:18.280Z,29.60
2022-11-29T15:45:26.336Z,37.13
2022-11-29T15:48:28.269Z,28.08
2022-11-29T15:51:29.004Z,30.08
2022-11-29T15:54:26.899Z,27.63
2022-11-29T15:57:21.106Z,33.17
2022-11-29T16:00:15.586Z,32.72
2022-11-29T16:03:05.587Z,35.10
2022-11-29T16:06:02.262Z,31.50
2022-11-29T16:08:50.235Z,31.15
2022-11-29T16:11:38.206Z,30.85
2022-11-29T16:14:28.488Z,31.92
2022-11-29T16:20:23.792Z,31.33
2022-11-29T16:23:14.041Z,29.15
2022-11-29T16:29:01.000Z,30.17
2022-11-29T16:31:48.437Z,27.67
2022-11-29T16:34:35.674Z,30.95
2022-11-29T16:37:28.964Z,27.65
2022-11-29T16:40:28.486Z,32.72
2022-11-29T16:43:44.694Z,30.48
2022-11-29T16:46:40.085Z,28.60
2022-11-29T16:49:33.760Z,33.65
2022-11-29T16:52:27.642Z,31.60
2022-11-29T16:55:17.600Z,27.90
2022-11-29T16:58:06.543Z,27.42
2022-11-29T17:00:54.038Z,27.40
2022-11-29T17:03:41.169Z,30.95
2022-11-29T17:06:30.030Z,29.55
2022-11-29T17:09:24.510Z,30.48
2022-11-29T17:12:13.586Z,30.17
2022-11-29T17:15:01.768Z,30.00
2022-11-29T17:17:50.516Z,24.50
2022-11-29T17:20:38.171Z,26.30
2022-11-29T17:23:25.798Z,27.73
2022-11-29T17:26:15.700Z,27.42
2022-11-29T17:29:03.052Z,30.42
2022-11-29T17:31:56.001Z,33.60
2022-11-29T17:34:43.816Z,28.10
2022-11-29T17:37:32.250Z,26.25
2022-11-29T17:40:20.381Z,24.50
2022-11-29T17:43:07.847Z,27.88
2022-11-29T17:45:55.286Z,26.25
2022-11-29T17:48:43.584Z,25.58
2022-11-29T17:54:39.375Z,25.95
2022-11-29T17:57:26.894Z,27.88
2022-11-29T18:00:15.757Z,28.30
2022-11-29T18:03:03.474Z,25.55
2022-11-29T18:05:52.029Z,24.55
2022-11-29T18:08:40.560Z,27.35
2022-11-29T18:11:30.159Z,23.70
2022-11-29T18:14:28.653Z,27.52
2022-11-29T18:17:16.520Z,28.25
2022-11-29T18:20:05.188Z,28.45
2022-11-29T18:22:53.913Z,25.30
2022-11-29T18:25:41.871Z,27.38
2022-11-29T18:28:35.614Z,25.50
2022-11-29T18:31:28.923Z,29.70
2022-11-29T18:34:18.138Z,25.60
2022-11-29T18:37:07.941Z,26.15
2022-11-29T18:39:59.049Z,28.77
2022-11-29T18:42:46.861Z,28.65
2022-11-29T18:45:38.328Z,27.00
2022-11-29T18:48:25.892Z,29.38
2022-11-29T18:51:19.107Z,30.67
2022-11-29T18:54:07.282Z,27.23
2022-11-29T18:56:55.643Z,29.98
2022-11-29T18:59:43.699Z,31.00
2022-11-29T19:02:31.549Z,28.42
2022-11-29T19:05:19.695Z,30.77
2022-11-29T19:08:10.209Z,36.08
2022-11-29T19:10:58.193Z,30.45
2022-11-29T19:13:47.470Z,32.17
2022-11-29T19:16:36.887Z,39.47
2022-11-29T19:19:25.018Z,34.80
2022-11-29T19:22:13.670Z,37.67
2022-11-29T19:25:02.644Z,38.50
2022-11-29T19:27:50.488Z,32.78
2022-11-29T19:30:38.765Z,37.17
2022-11-29T19:33:31.292Z,37.92
2022-11-29T19:36:20.891Z,38.50
2022-11-29T19:39:09.795Z,36.25
2022-11-29T19:41:57.964Z,39.05
2022-11-29T19:45:18.208Z,38.00
2022-11-29T19:47:57.196Z,36.35
2022-11-29T19:50:45.286Z,42.60
2022-11-29T19:53:34.483Z,35.70
2022-11-29T19:56:23.838Z,42.15
2022-11-29T19:59:11.898Z,36.28
2022-11-29T20:02:00.384Z,37.20
2022-11-29T20:04:49.875Z,38.67
2022-11-29T20:07:38.854Z,35.78
2022-11-29T20:10:28.225Z,40.90
2022-11-29T20:13:16.080Z,38.30
2022-11-29T20:16:13.304Z,39.67
2022-11-29T20:19:01.982Z,36.33
2022-11-29T20:21:50.250Z,37.38
2022-11-29T20:24:45.117Z,37.97
2022-11-29T20:27:33.582Z,39.10
2022-11-29T20:30:21.502Z,39.15
2022-11-29T20:33:15.683Z,37.90
2022-11-29T20:36:32.081Z,34.63
2022-11-29T20:39:38.671Z,36.58
2022-11-29T20:42:54.867Z,42.03
2022-11-29T20:45:43.462Z,41.60
2022-11-29T20:48:33.000Z,37.30
2022-11-29T20:51:27.880Z,38.67
2022-11-29T20:54:18.022Z,37.63
2022-11-29T20:57:07.217Z,38.80
2022-11-29T20:59:55.832Z,40.50
2022-11-29T21:02:43.927Z,39.50
2022-11-29T21:05:31.519Z,38.63
2022-11-29T21:08:22.084Z,39.38
2022-11-29T21:11:10.587Z,38.30
2022-11-29T21:13:58.132Z,41.72
2022-11-29T21:16:45.442Z,39.30
2022-11-29T21:19:33.237Z,39.67
2022-11-29T21:22:48.843Z,38.75
2022-11-29T21:25:49.345Z,38.55
2022-11-29T21:28:41.816Z,37.72
2022-11-29T21:31:29.326Z,39.67
2022-11-29T21:34:16.590Z,35.50
2022-11-29T21:37:05.502Z,45.17
2022-11-29T21:39:53.470Z,40.13
2022-11-29T21:42:40.822Z,38.53
2022-11-29T21:45:28.178Z,36.55
2022-11-29T21:48:33.877Z,39.00
2022-11-29T21:51:20.901Z,39.90
2022-11-29T21:54:07.987Z,37.25
2022-11-29T21:56:55.797Z,42.72
2022-11-29T21:59:42.817Z,41.28
2022-11-29T22:02:29.916Z,39.28
2022-11-29T22:05:17.042Z,39.05
2022-11-29T22:08:04.772Z,39.80
2022-11-29T22:11:00.660Z,41.63
2022-11-29T22:14:06.600Z,38.90
2022-11-29T22:16:54.757Z,37.53
2022-11-29T22:19:42.592Z,38.95
2022-11-29T22:22:30.281Z,42.38
2022-11-29T22:25:17.478Z,40.70
2022-11-29T22:28:04.580Z,41.88
2022-11-29T22:30:51.575Z,40.15
2022-11-29T22:33:38.939Z,38.90
2022-11-29T22:36:26.473Z,38.33
2022-11-29T22:39:14.296Z,38.47
2022-11-29T22:42:01.313Z,39.45
2022-11-29T22:44:48.575Z,38.05
2022-11-29T22:47:35.722Z,41.22
2022-11-29T22:50:22.786Z,40.10
2022-11-29T22:53:09.800Z,37.97
2022-11-29T22:56:01.251Z,36.88
2022-11-29T22:58:48.579Z,38.17
2022-11-29T23:01:38.001Z,37.25
2022-11-29T23:04:25.027Z,39.28
2022-11-29T23:07:12.174Z,42.22
2022-11-29T23:09:43.386Z,41.67
2022-11-29T23:12:30.450Z,36.15
2022-11-29T23:15:17.630Z,39.53
2022-11-29T23:18:04.781Z,39.45
2022-11-29T23:20:51.851Z,37.67
2022-11-29T23:23:39.209Z,38.38
2022-11-29T23:26:28.650Z,35.80
2022-11-29T23:29:18.332Z,33.60
2022-11-29T23:32:05.364Z,35.05
2022-11-29T23:34:52.400Z,43.72
2022-11-29T23:37:39.401Z,42.03
2022-11-29T23:40:26.496Z,38.75
2022-11-29T23:43:13.502Z,41.40
2022-11-29T23:46:05.322Z,41.03
2022-11-29T23:48:52.861Z,40.03
2022-11-29T23:51:39.833Z,37.97
2022-11-29T23:54:26.834Z,41.08
2022-11-29T23:57:13.835Z,39.03
